Time;durP1;ratioP1;P1;durP2;ratioP2;P2;SDS_P1;SDS_P2;PMS_P1;PMS_P2;Temp;Humidity;BMP_temperature;BMP_pressure;BME280_temperature;BME280_humidity;BME280_pressure;Samples;Min_cycle;Max_cycle;Signal;HPM_P1;HPM_P2
2024/04/23 00:05:54;;;;;;;;;23.75;22.50;;;;;;;;6492502;31;9076;-64
2024/04/23 00:11:56;;;;;;;;;27.50;26.00;;;;;;;;6491172;46;9024;-65
2024/04/23 00:18:00;;;;;;;;;29.50;24.25;;;;;;;;6491375;46;8896;-63
2024/04/23 00:24:01;;;;;;;;;30.00;26.00;;;;;;;;6491052;46;8938;-64
2024/04/23 00:30:06;;;;;;;;;24.00;23.50;;;;;;;;6491758;46;9011;-65
2024/04/23 00:36:07;;;;;;;;;24.75;23.50;;;;;;;;6490289;46;8916;-64
2024/04/23 00:42:10;;;;;;;;;29.75;28.25;;;;;;;;6491310;46;9039;-64
2024/04/23 00:48:13;;;;;;;;;27.50;23.75;;;;;;;;6491544;46;8901;-64
2024/04/23 00:54:16;;;;;;;;;33.75;31.00;;;;;;;;6491250;39;9031;-64
2024/04/23 01:00:19;;;;;;;;;25.00;23.25;;;;;;;;6491883;39;8975;-64
2024/04/23 01:06:21;;;;;;;;;31.00;29.00;;;;;;;;6490909;46;9171;-64
2024/04/23 01:12:23;;;;;;;;;22.25;19.50;;;;;;;;6491416;39;8931;-64
2024/04/23 01:18:27;;;;;;;;;20.75;20.00;;;;;;;;6491193;39;8949;-64
2024/04/23 01:24:48;;;;;;;;;24.50;24.00;;;;;;;;6492148;31;8918;-63
2024/04/23 01:30:52;;;;;;;;;24.50;22.50;;;;;;;;6491368;39;8921;-64
2024/04/23 01:36:53;;;;;;;;;29.00;24.50;;;;;;;;6490901;39;8929;-63
2024/04/23 01:42:56;;;;;;;;;29.50;24.75;;;;;;;;6491015;39;9069;-65
2024/04/23 01:48:59;;;;;;;;;24.25;23.50;;;;;;;;6491130;39;8951;-65
2024/04/23 01:55:22;;;;;;;;;30.75;28.00;;;;;;;;6490592;46;8991;-64
2024/04/23 02:01:30;;;;;;;;;24.00;23.75;;;;;;;;6491364;39;9189;-64
2024/04/23 02:07:34;;;;;;;;;24.75;23.00;;;;;;;;6490457;46;9050;-64
2024/04/23 02:13:37;;;;;;;;;30.00;25.50;;;;;;;;6491218;39;8962;-64
2024/04/23 02:19:38;;;;;;;;;26.75;25.25;;;;;;;;6490248;39;8921;-64
2024/04/23 02:25:42;;;;;;;;;29.75;27.00;;;;;;;;6490477;46;9054;-65
2024/04/23 02:31:43;;;;;;;;;31.25;29.00;;;;;;;;6490623;39;8921;-64
2024/04/23 02:37:53;;;;;;;;;32.75;31.50;;;;;;;;6490606;39;8896;-64
2024/04/23 02:43:54;;;;;;;;;26.00;25.50;;;;;;;;6491574;39;8925;-64
2024/04/23 02:50:01;;;;;;;;;29.50;25.50;;;;;;;;6490619;39;8884;-63
2024/04/23 02:56:05;;;;;;;;;42.00;37.25;;;;;;;;6490029;39;8960;-64
2024/04/23 03:02:10;;;;;;;;;37.25;32.75;;;;;;;;6490071;46;8975;-65
2024/04/23 03:08:16;;;;;;;;;35.50;31.50;;;;;;;;6489918;46;8932;-64
2024/04/23 03:14:17;;;;;;;;;40.50;36.00;;;;;;;;6490363;39;8908;-65
2024/04/23 03:20:18;;;;;;;;;34.75;30.25;;;;;;;;6490342;39;8988;-64
2024/04/23 03:26:19;;;;;;;;;42.25;38.25;;;;;;;;6489700;39;8884;-65
2024/04/23 03:32:22;;;;;;;;;44.25;36.25;;;;;;;;6489213;39;8987;-64
2024/04/23 03:38:24;;;;;;;;;32.75;31.75;;;;;;;;6490117;39;8967;-64
2024/04/23 03:44:27;;;;;;;;;35.00;29.50;;;;;;;;6490271;39;9599;-65
2024/04/23 03:50:29;;;;;;;;;35.00;29.50;;;;;;;;6489800;39;8912;-65
2024/04/23 03:56:31;;;;;;;;;30.75;25.25;;;;;;;;6490015;31;8921;-65
2024/04/23 04:08:56;;;;;;;;;35.00;30.50;;;;;;;;6491518;46;8934;-67
2024/04/23 04:14:57;;;;;;;;;31.00;28.50;;;;;;;;6491932;46;8903;-67
2024/04/23 04:21:03;;;;;;;;;28.75;27.75;;;;;;;;6493039;39;9044;-70
2024/04/23 04:27:06;;;;;;;;;24.50;22.25;;;;;;;;6492056;39;8881;-68
2024/04/23 04:33:11;;;;;;;;;23.50;22.50;;;;;;;;6492311;39;8896;-70
2024/04/23 04:39:19;;;;;;;;;28.75;26.50;;;;;;;;6492500;39;9614;-66
2024/04/23 04:45:24;;;;;;;;;30.25;27.00;;;;;;;;6492579;39;8917;-68
2024/04/23 04:51:28;;;;;;;;;27.25;25.50;;;;;;;;6492942;46;9095;-68
2024/04/23 04:57:35;;;;;;;;;27.50;25.75;;;;;;;;6488455;46;8940;-69
2024/04/23 05:03:36;;;;;;;;;28.00;24.00;;;;;;;;6491394;39;8984;-67
2024/04/23 05:09:43;;;;;;;;;31.50;27.75;;;;;;;;6491932;31;8902;-67
2024/04/23 05:15:44;;;;;;;;;29.50;27.50;;;;;;;;6492114;39;9043;-67
2024/04/23 05:21:49;;;;;;;;;26.75;25.00;;;;;;;;6492144;39;10013;-67
2024/04/23 05:27:50;;;;;;;;;25.00;23.25;;;;;;;;6491446;39;8924;-68
2024/04/23 05:33:51;;;;;;;;;27.50;24.50;;;;;;;;6492451;46;8914;-68
2024/04/23 05:39:52;;;;;;;;;32.50;30.50;;;;;;;;6492051;39;9590;-67
2024/04/23 05:45:53;;;;;;;;;33.50;30.75;;;;;;;;6491405;39;9577;-66
2024/04/23 05:52:34;;;;;;;;;40.25;35.50;;;;;;;;6492239;46;8992;-64
2024/04/23 05:58:56;;;;;;;;;36.75;32.50;;;;;;;;6491823;31;8874;-64
2024/04/23 06:05:02;;;;;;;;;26.75;26.00;;;;;;;;6491961;46;8932;-64
2024/04/23 06:11:04;;;;;;;;;32.75;29.00;;;;;;;;6459728;31;8931;-64
2024/04/23 06:17:16;;;;;;;;;24.50;19.00;;;;;;;;6490770;31;8908;-64
2024/04/23 06:23:27;;;;;;;;;32.75;28.75;;;;;;;;6491328;39;8941;-65
2024/04/23 06:29:29;;;;;;;;;31.25;29.25;;;;;;;;6490703;46;8883;-64
2024/04/23 06:35:52;;;;;;;;;19.75;17.00;;;;;;;;6490904;39;8975;-65
2024/04/23 06:41:53;;;;;;;;;30.00;24.00;;;;;;;;6491301;39;8955;-64
2024/04/23 06:47:54;;;;;;;;;22.25;22.25;;;;;;;;6491175;39;8945;-64
2024/04/23 06:53:56;;;;;;;;;25.00;21.00;;;;;;;;6487699;46;8916;-63
2024/04/23 06:59:57;;;;;;;;;34.75;32.00;;;;;;;;6489230;46;8914;-65
2024/04/23 07:06:00;;;;;;;;;30.50;26.75;;;;;;;;6490838;31;8937;-66
2024/04/23 07:12:04;;;;;;;;;29.00;26.50;;;;;;;;6490208;39;8914;-64
2024/04/23 07:18:07;;;;;;;;;22.50;20.00;;;;;;;;6490579;39;8874;-64
2024/04/23 07:24:10;;;;;;;;;24.75;20.75;;;;;;;;6489718;47;8972;-65
2024/04/23 07:30:11;;;;;;;;;28.25;26.00;;;;;;;;6490748;47;8877;-66
2024/04/23 07:36:13;;;;;;;;;25.50;20.75;;;;;;;;6488475;47;8965;-65
2024/04/23 07:42:15;;;;;;;;;21.50;18.00;;;;;;;;6488792;31;8937;-64
2024/04/23 07:48:17;;;;;;;;;21.75;20.50;;;;;;;;6491396;46;8964;-64
2024/04/23 07:54:19;;;;;;;;;26.25;23.25;;;;;;;;6491034;31;8905;-66
2024/04/23 08:00:24;;;;;;;;;20.50;20.50;;;;;;;;6490593;31;9083;-66
2024/04/23 08:06:27;;;;;;;;;23.75;22.75;;;;;;;;6491214;39;9059;-67
2024/04/23 08:12:36;;;;;;;;;22.50;21.75;;;;;;;;6491551;46;8926;-66
2024/04/23 08:18:37;;;;;;;;;20.25;18.50;;;;;;;;6491496;31;8929;-67
2024/04/23 08:24:38;;;;;;;;;26.25;25.75;;;;;;;;6489807;39;8893;-65
2024/04/23 08:30:43;;;;;;;;;30.50;28.00;;;;;;;;6490614;39;9018;-66
2024/04/23 08:36:44;;;;;;;;;46.67;39.33;;;;;;;;6490881;39;8976;-66
2024/04/23 08:42:47;;;;;;;;;31.25;26.00;;;;;;;;6488415;31;9015;-65
2024/04/23 08:48:50;;;;;;;;;41.75;34.25;;;;;;;;6490940;31;9008;-68
2024/04/23 08:54:54;;;;;;;;;50.00;41.75;;;;;;;;6490981;31;8963;-66
2024/04/23 09:01:02;;;;;;;;;38.00;33.50;;;;;;;;6491536;39;9038;-68
2024/04/23 09:07:11;;;;;;;;;18.75;18.75;;;;;;;;6489790;39;8958;-67
2024/04/23 09:13:13;;;;;;;;;19.25;18.50;;;;;;;;6490004;31;8896;-67
2024/04/23 09:19:19;;;;;;;;;21.00;21.00;;;;;;;;6490380;31;9049;-66
2024/04/23 09:25:20;;;;;;;;;18.25;16.50;;;;;;;;6489730;39;8956;-66
2024/04/23 09:31:24;;;;;;;;;24.25;22.25;;;;;;;;6490768;31;8863;-68
2024/04/23 09:37:30;;;;;;;;;32.00;28.50;;;;;;;;6490415;31;8904;-67
2024/04/23 09:43:40;;;;;;;;;20.50;20.50;;;;;;;;6489115;46;8939;-67
2024/04/23 09:49:46;;;;;;;;;45.75;38.00;;;;;;;;6490865;39;8927;-69
2024/04/23 09:55:58;;;;;;;;;46.50;39.00;;;;;;;;6489970;31;9045;-66
2024/04/23 10:02:02;;;;;;;;;29.75;26.75;;;;;;;;6490805;39;8980;-68
2024/04/23 10:08:18;;;;;;;;;42.50;36.75;;;;;;;;6490270;39;8948;-69
2024/04/23 10:14:45;;;;;;;;;57.50;46.00;;;;;;;;6490776;39;9033;-68
2024/04/23 10:20:51;;;;;;;;;21.00;21.00;;;;;;;;6489115;39;9443;-67
2024/04/23 10:26:54;;;;;;;;;20.75;20.75;;;;;;;;6489435;46;8930;-67
2024/04/23 10:33:00;;;;;;;;;31.50;29.50;;;;;;;;6490445;39;9027;-70
2024/04/23 10:39:15;;;;;;;;;21.75;21.75;;;;;;;;6489463;46;8989;-68
2024/04/23 10:45:20;;;;;;;;;26.00;24.25;;;;;;;;6490197;46;8869;-68
2024/04/23 10:51:34;;;;;;;;;33.25;29.75;;;;;;;;6479479;39;8891;-67
2024/04/23 10:57:37;;;;;;;;;26.00;25.25;;;;;;;;6489694;46;8948;-67
2024/04/23 11:03:39;;;;;;;;;18.25;18.25;;;;;;;;6490611;39;8953;-66
2024/04/23 11:09:43;;;;;;;;;31.25;26.25;;;;;;;;6489275;46;9024;-64
2024/04/23 11:15:48;;;;;;;;;28.75;26.75;;;;;;;;6490767;31;8961;-65
2024/04/23 11:21:52;;;;;;;;;31.50;27.50;;;;;;;;6490446;31;9076;-68
2024/04/23 11:28:01;;;;;;;;;29.00;26.75;;;;;;;;6489474;31;8906;-68
2024/04/23 11:34:08;;;;;;;;;29.00;25.75;;;;;;;;6490059;31;9118;-67
2024/04/23 11:40:22;;;;;;;;;20.75;18.00;;;;;;;;6489696;39;9751;-66
2024/04/23 11:46:24;;;;;;;;;25.75;25.75;;;;;;;;6490078;39;9070;-65
2024/04/23 11:52:28;;;;;;;;;16.75;16.75;;;;;;;;6487505;47;8910;-64
2024/04/23 11:58:30;;;;;;;;;18.50;17.75;;;;;;;;6489438;39;9016;-67
2024/04/23 12:04:38;;;;;;;;;28.25;27.00;;;;;;;;6488772;39;9039;-64
2024/04/23 12:10:45;;;;;;;;;62.50;51.25;;;;;;;;6489668;31;8971;-64
2024/04/23 12:16:51;;;;;;;;;29.75;27.25;;;;;;;;6489864;39;8923;-64
2024/04/23 12:22:52;;;;;;;;;31.50;29.50;;;;;;;;6481478;47;8963;-65
2024/04/23 12:28:54;;;;;;;;;22.00;22.00;;;;;;;;6490071;31;8867;-65
2024/04/23 12:34:57;;;;;;;;;32.00;32.00;;;;;;;;6489448;39;9019;-66
2024/04/23 12:41:00;;;;;;;;;36.25;34.00;;;;;;;;6491600;46;9125;-65
2024/04/23 12:47:08;;;;;;;;;32.50;29.00;;;;;;;;6492094;39;8920;-67
2024/04/23 12:53:18;;;;;;;;;22.00;22.00;;;;;;;;6491324;31;9026;-66
2024/04/23 12:59:21;;;;;;;;;44.50;40.00;;;;;;;;6489845;39;8954;-65
2024/04/23 13:05:24;;;;;;;;;26.75;23.00;;;;;;;;6490304;31;8982;-67
2024/04/23 13:11:26;;;;;;;;;28.25;27.25;;;;;;;;6488462;46;8971;-64
2024/04/23 13:17:28;;;;;;;;;35.50;34.00;;;;;;;;6490295;39;8915;-66
2024/04/23 13:23:33;;;;;;;;;39.50;38.00;;;;;;;;6486775;46;8966;-65
2024/04/23 13:29:34;;;;;;;;;25.25;23.50;;;;;;;;6491981;39;8869;-65
2024/04/23 13:35:37;;;;;;;;;20.00;20.00;;;;;;;;6484669;46;8913;-65
2024/04/23 13:41:45;;;;;;;;;63.50;52.25;;;;;;;;6487560;31;8963;-64
2024/04/23 13:47:50;;;;;;;;;50.00;42.25;;;;;;;;6489857;39;8964;-65
2024/04/23 13:53:55;;;;;;;;;65.25;52.50;;;;;;;;6490339;39;9018;-65
2024/04/23 13:59:57;;;;;;;;;34.25;33.00;;;;;;;;6491642;39;9569;-66
2024/04/23 14:06:05;;;;;;;;;51.25;43.75;;;;;;;;6491182;46;8950;-65
2024/04/23 14:12:08;;;;;;;;;26.75;24.25;;;;;;;;6491017;46;8908;-66
2024/04/23 14:18:20;;;;;;;;;15.25;13.25;;;;;;;;6491483;31;8919;-67
2024/04/23 14:24:26;;;;;;;;;20.25;20.00;;;;;;;;6491704;39;8936;-65
2024/04/23 14:30:37;;;;;;;;;29.00;28.00;;;;;;;;6491952;39;8938;-66
2024/04/23 14:36:43;;;;;;;;;62.00;52.00;;;;;;;;6490808;31;8889;-66
2024/04/23 14:42:51;;;;;;;;;22.50;20.50;;;;;;;;6491973;39;8940;-66
2024/04/23 14:48:53;;;;;;;;;24.50;24.50;;;;;;;;6490684;31;8896;-66
2024/04/23 14:54:54;;;;;;;;;17.25;17.00;;;;;;;;6490178;46;8948;-66
2024/04/23 15:00:57;;;;;;;;;24.50;22.75;;;;;;;;6491229;46;8957;-64
2024/04/23 15:07:01;;;;;;;;;23.00;20.00;;;;;;;;6489325;39;8986;-66
2024/04/23 15:13:04;;;;;;;;;79.00;61.25;;;;;;;;6491037;46;8952;-66
2024/04/23 15:19:13;;;;;;;;;19.50;18.75;;;;;;;;6492074;31;8895;-66
2024/04/23 15:25:15;;;;;;;;;59.25;48.25;;;;;;;;6489852;39;9020;-68
2024/04/23 15:31:17;;;;;;;;;25.75;23.00;;;;;;;;6491600;31;9022;-67
2024/04/23 15:37:20;;;;;;;;;20.75;17.75;;;;;;;;6490712;39;8930;-66
2024/04/23 15:43:23;;;;;;;;;16.00;15.50;;;;;;;;6489360;39;8966;-68
2024/04/23 15:49:32;;;;;;;;;17.75;16.75;;;;;;;;6490532;47;8956;-66
2024/04/23 15:55:42;;;;;;;;;21.75;20.50;;;;;;;;6490347;39;9030;-66
2024/04/23 16:01:51;;;;;;;;;22.00;21.00;;;;;;;;6490541;39;9008;-65
2024/04/23 16:08:00;;;;;;;;;21.25;21.00;;;;;;;;6491446;39;9071;-66
2024/04/23 16:14:03;;;;;;;;;27.00;22.00;;;;;;;;6492766;46;8883;-66
2024/04/23 16:20:06;;;;;;;;;16.25;16.25;;;;;;;;6491834;39;9043;-66
2024/04/23 16:26:09;;;;;;;;;15.00;14.75;;;;;;;;6492384;46;8895;-65
2024/04/23 16:32:12;;;;;;;;;13.00;13.00;;;;;;;;6491819;39;9035;-65
2024/04/23 16:38:19;;;;;;;;;13.75;13.00;;;;;;;;6490827;39;8918;-65
2024/04/23 16:44:21;;;;;;;;;12.00;12.00;;;;;;;;6492616;31;8908;-65
2024/04/23 16:50:23;;;;;;;;;15.50;15.50;;;;;;;;6491959;39;8935;-66
2024/04/23 16:56:24;;;;;;;;;11.50;11.50;;;;;;;;6493081;39;9541;-65
2024/04/23 17:02:29;;;;;;;;;12.75;12.50;;;;;;;;6492319;46;8954;-65
2024/04/23 17:08:32;;;;;;;;;19.25;17.50;;;;;;;;6492007;39;9761;-68
2024/04/23 17:14:37;;;;;;;;;18.00;16.50;;;;;;;;6492237;46;8911;-66
2024/04/23 17:20:40;;;;;;;;;14.25;13.00;;;;;;;;6490909;46;8923;-65
2024/04/23 17:26:41;;;;;;;;;16.00;16.00;;;;;;;;6491587;46;8946;-70
2024/04/23 17:32:43;;;;;;;;;15.25;14.25;;;;;;;;6491862;39;9653;-70
2024/04/23 17:38:52;;;;;;;;;18.25;17.00;;;;;;;;6491166;46;8984;-69
2024/04/23 17:44:55;;;;;;;;;14.25;14.00;;;;;;;;6491621;39;8969;-70
2024/04/23 17:50:57;;;;;;;;;18.25;16.75;;;;;;;;6490359;39;8894;-69
2024/04/23 17:57:00;;;;;;;;;16.75;14.25;;;;;;;;6492474;39;9068;-70
2024/04/23 18:03:02;;;;;;;;;13.75;13.25;;;;;;;;6492582;39;9041;-71
2024/04/23 18:09:11;;;;;;;;;16.50;14.25;;;;;;;;6490380;39;9061;-70
2024/04/23 18:15:18;;;;;;;;;12.00;12.00;;;;;;;;6491990;39;8928;-69
2024/04/23 18:21:22;;;;;;;;;17.50;16.50;;;;;;;;6491681;31;9081;-71
2024/04/23 18:27:29;;;;;;;;;16.75;14.25;;;;;;;;6491982;46;8869;-70
2024/04/23 18:33:42;;;;;;;;;18.75;17.00;;;;;;;;6492556;39;8913;-69
2024/04/23 18:39:48;;;;;;;;;16.50;16.50;;;;;;;;6492086;31;8956;-70
2024/04/23 18:45:49;;;;;;;;;19.75;18.50;;;;;;;;6505768;46;8914;-69
2024/04/23 18:51:57;;;;;;;;;19.50;17.25;;;;;;;;6493106;39;8963;-71
2024/04/23 18:58:11;;;;;;;;;20.75;17.75;;;;;;;;6491261;46;8914;-69
2024/04/23 19:04:17;;;;;;;;;18.25;16.25;;;;;;;;6491926;39;9678;-70
2024/04/23 19:10:27;;;;;;;;;16.00;15.00;;;;;;;;6491869;39;9668;-69
2024/04/23 19:16:30;;;;;;;;;20.50;20.50;;;;;;;;6491958;31;8944;-71
2024/04/23 19:22:38;;;;;;;;;20.75;17.50;;;;;;;;6491554;39;9012;-71
2024/04/23 19:28:42;;;;;;;;;17.00;16.25;;;;;;;;6491509;39;9107;-71
2024/04/23 19:34:45;;;;;;;;;17.00;17.00;;;;;;;;6491026;39;9037;-71
2024/04/23 19:40:48;;;;;;;;;19.75;18.25;;;;;;;;6491396;46;8924;-70
2024/04/23 19:46:52;;;;;;;;;17.25;16.25;;;;;;;;6493674;39;9020;-69
2024/04/23 19:52:53;;;;;;;;;16.25;16.25;;;;;;;;6492801;39;8889;-72
2024/04/23 19:58:56;;;;;;;;;16.50;15.50;;;;;;;;6492873;31;8961;-68
2024/04/23 20:04:57;;;;;;;;;18.00;16.50;;;;;;;;6492955;39;9804;-70
2024/04/23 20:11:01;;;;;;;;;16.00;15.25;;;;;;;;6492662;46;8939;-69
2024/04/23 20:17:03;;;;;;;;;14.75;14.50;;;;;;;;6492799;39;8929;-71
2024/04/23 20:23:10;;;;;;;;;12.00;12.00;;;;;;;;6493490;31;9048;-69
2024/04/23 20:29:14;;;;;;;;;18.50;16.75;;;;;;;;6492808;46;8928;-69
2024/04/23 20:35:17;;;;;;;;;15.00;15.00;;;;;;;;6492800;39;9021;-70
2024/04/23 20:41:23;;;;;;;;;20.75;16.25;;;;;;;;6493669;31;8960;-68
2024/04/23 20:47:25;;;;;;;;;17.00;16.75;;;;;;;;6490940;39;9676;-69
2024/04/23 20:53:27;;;;;;;;;14.00;14.00;;;;;;;;6492270;39;9016;-69
2024/04/23 20:59:30;;;;;;;;;13.00;12.75;;;;;;;;6492722;31;8970;-70
2024/04/23 21:05:35;;;;;;;;;15.00;15.00;;;;;;;;6492081;46;8965;-68
2024/04/23 21:11:39;;;;;;;;;13.25;13.25;;;;;;;;6493156;39;8937;-69
2024/04/23 21:17:42;;;;;;;;;16.50;16.00;;;;;;;;6493067;31;8920;-69
2024/04/23 21:23:46;;;;;;;;;12.75;11.75;;;;;;;;6492140;39;8985;-69
2024/04/23 21:29:49;;;;;;;;;12.00;12.00;;;;;;;;6493062;31;8913;-70
2024/04/23 21:35:52;;;;;;;;;15.00;15.00;;;;;;;;6491647;39;8980;-69
2024/04/23 21:41:55;;;;;;;;;15.50;15.50;;;;;;;;6492041;46;9047;-68
2024/04/23 21:47:57;;;;;;;;;16.00;15.00;;;;;;;;6491863;46;8941;-69
2024/04/23 21:54:01;;;;;;;;;19.50;16.25;;;;;;;;6501714;39;8951;-69
2024/04/23 22:00:06;;;;;;;;;14.50;13.50;;;;;;;;6502538;46;9020;-69
2024/04/23 22:06:13;;;;;;;;;15.75;15.75;;;;;;;;6491974;39;8999;-68
2024/04/23 22:12:18;;;;;;;;;17.25;17.25;;;;;;;;6492194;46;8918;-70
2024/04/23 22:18:22;;;;;;;;;16.00;16.00;;;;;;;;6491872;39;8925;-69
2024/04/23 22:24:27;;;;;;;;;14.75;13.50;;;;;;;;6490714;46;9041;-69
2024/04/23 22:30:33;;;;;;;;;16.75;16.75;;;;;;;;6492200;46;8905;-69
2024/04/23 22:36:34;;;;;;;;;17.75;15.75;;;;;;;;6491125;39;8921;-69
2024/04/23 22:42:37;;;;;;;;;17.75;14.00;;;;;;;;6491953;46;8928;-69
2024/04/23 22:48:40;;;;;;;;;15.75;15.75;;;;;;;;6490883;46;9036;-69
2024/04/23 22:54:41;;;;;;;;;19.75;19.25;;;;;;;;6491796;31;8943;-69
2024/04/23 23:00:43;;;;;;;;;16.00;15.50;;;;;;;;6491561;39;9022;-70
2024/04/23 23:06:48;;;;;;;;;21.00;19.75;;;;;;;;6490991;39;9021;-69
2024/04/23 23:12:49;;;;;;;;;20.75;18.25;;;;;;;;6491620;39;9020;-69
2024/04/23 23:18:54;;;;;;;;;19.00;16.75;;;;;;;;6490467;46;9020;-69
2024/04/23 23:25:00;;;;;;;;;26.00;24.00;;;;;;;;6492035;39;8906;-69
2024/04/23 23:31:04;;;;;;;;;24.25;21.50;;;;;;;;6490914;39;8940;-70
2024/04/23 23:37:08;;;;;;;;;20.50;19.00;;;;;;;;6494528;31;167482;-69
2024/04/23 23:43:15;;;;;;;;;22.50;20.50;;;;;;;;6491383;47;8994;-69
2024/04/23 23:49:16;;;;;;;;;22.50;22.50;;;;;;;;6490313;47;8907;-70
2024/04/23 23:55:21;;;;;;;;;22.25;22.25;;;;;;;;6491035;46;8886;-69
